createdAt,value
2023-04-27T00:01:26.586Z,6.35
2023-04-27T00:03:58.180Z,7.37
2023-04-27T00:06:29.646Z,7.15
2023-04-27T00:09:00.964Z,7.28
2023-04-27T00:11:32.382Z,7.78
2023-04-27T00:14:04.272Z,7.92
2023-04-27T00:16:35.430Z,7.83
2023-04-27T00:19:06.777Z,11.33
2023-04-27T00:21:37.913Z,8.13
2023-04-27T00:24:11.173Z,7.70
2023-04-27T00:26:42.673Z,8.20
2023-04-27T00:29:14.135Z,7.67
2023-04-27T00:31:45.804Z,8.60
2023-04-27T00:34:17.008Z,8.18
2023-04-27T00:36:48.114Z,8.50
2023-04-27T00:39:19.178Z,9.18
2023-04-27T00:41:50.309Z,10.40
2023-04-27T00:44:28.777Z,11.05
2023-04-27T00:47:00.745Z,8.65
2023-04-27T00:49:32.029Z,9.03
2023-04-27T00:52:03.100Z,7.45
2023-04-27T00:54:35.988Z,7.70
2023-04-27T00:57:07.552Z,6.67
2023-04-27T00:59:38.652Z,7.47
2023-04-27T01:02:09.777Z,6.22
2023-04-27T01:04:41.005Z,6.80
2023-04-27T01:07:12.227Z,7.00
2023-04-27T01:09:43.782Z,6.62
2023-04-27T01:12:14.839Z,7.55
2023-04-27T01:14:46.360Z,7.15
2023-04-27T01:17:17.724Z,7.28
2023-04-27T01:19:48.924Z,6.80
2023-04-27T01:22:20.115Z,14.33
2023-04-27T01:24:53.194Z,9.05
2023-04-27T01:27:25.015Z,8.48
2023-04-27T01:29:56.097Z,9.10
2023-04-27T01:32:27.173Z,7.42
2023-04-27T01:34:58.230Z,8.98
2023-04-27T01:37:32.798Z,8.15
2023-04-27T01:40:04.377Z,7.65
2023-04-27T01:42:35.807Z,7.55
2023-04-27T01:45:07.491Z,7.50
2023-04-27T01:47:38.621Z,7.10
2023-04-27T01:50:10.211Z,7.25
2023-04-27T01:52:41.272Z,6.95
2023-04-27T01:55:12.580Z,7.95
2023-04-27T01:57:43.653Z,6.97
2023-04-27T02:00:15.586Z,7.35
2023-04-27T02:02:48.514Z,6.53
2023-04-27T02:05:19.322Z,6.87
2023-04-27T02:07:50.811Z,7.17
2023-04-27T02:10:24.581Z,7.28
2023-04-27T02:12:56.277Z,7.15
2023-04-27T02:15:28.820Z,7.72
2023-04-27T02:17:59.884Z,7.37
2023-04-27T02:20:35.946Z,7.30
2023-04-27T02:23:07.926Z,6.95
2023-04-27T02:25:43.663Z,6.85
2023-04-27T02:28:15.226Z,7.45
2023-04-27T02:30:46.725Z,7.08
2023-04-27T02:33:19.824Z,6.50
2023-04-27T02:35:54.492Z,6.47
2023-04-27T02:38:25.972Z,6.87
2023-04-27T02:40:57.939Z,7.25
2023-04-27T02:43:30.424Z,7.42
2023-04-27T02:46:06.654Z,6.60
2023-04-27T02:48:38.114Z,7.70
2023-04-27T02:51:09.542Z,7.33
2023-04-27T02:53:40.718Z,7.55
2023-04-27T02:56:11.778Z,7.20
2023-04-27T02:58:42.929Z,7.87
2023-04-27T03:01:14.049Z,7.17
2023-04-27T03:03:46.412Z,7.28
2023-04-27T03:06:17.947Z,7.50
2023-04-27T03:08:49.031Z,7.15
2023-04-27T03:11:20.462Z,8.23
2023-04-27T03:13:51.686Z,8.05
2023-04-27T03:16:23.315Z,7.78
2023-04-27T03:18:54.686Z,8.08
2023-04-27T03:21:28.826Z,8.15
2023-04-27T03:24:01.164Z,7.10
2023-04-27T03:27:02.524Z,7.62
2023-04-27T03:29:34.188Z,8.30
2023-04-27T03:32:06.494Z,8.23
2023-04-27T03:34:38.567Z,8.05
2023-04-27T03:37:09.717Z,7.65
2023-04-27T03:39:41.152Z,7.42
2023-04-27T03:42:12.223Z,7.20
2023-04-27T03:44:43.323Z,8.03
2023-04-27T03:47:17.604Z,7.25
2023-04-27T03:49:48.880Z,7.12
2023-04-27T03:52:21.179Z,8.10
2023-04-27T03:54:57.129Z,7.50
2023-04-27T03:57:28.469Z,7.10
2023-04-27T04:00:00.557Z,8.45
2023-04-27T04:02:34.795Z,7.37
2023-04-27T04:05:06.573Z,7.33
2023-04-27T04:07:37.722Z,6.78
2023-04-27T04:10:09.557Z,8.18
2023-04-27T04:12:43.610Z,7.35
2023-04-27T04:15:15.562Z,6.92
2023-04-27T04:17:47.121Z,7.00
2023-04-27T04:20:23.763Z,7.05
2023-04-27T04:22:57.087Z,7.40
2023-04-27T04:25:29.376Z,7.53
2023-04-27T04:28:00.525Z,8.43
2023-04-27T04:30:31.634Z,7.55
2023-04-27T04:33:02.709Z,7.80
2023-04-27T04:35:35.466Z,7.15
2023-04-27T04:38:07.075Z,8.08
2023-04-27T04:40:38.314Z,8.00
2023-04-27T04:43:09.429Z,8.08
2023-04-27T04:45:40.369Z,7.70
2023-04-27T04:48:11.714Z,7.12
2023-04-27T04:50:43.205Z,6.85
2023-04-27T04:53:14.831Z,7.45
2023-04-27T04:55:45.961Z,6.97
2023-04-27T04:58:17.011Z,6.83
2023-04-27T05:00:47.959Z,7.53
2023-04-27T05:03:19.333Z,7.10
2023-04-27T05:05:51.769Z,7.67
2023-04-27T05:08:22.843Z,6.47
2023-04-27T05:10:54.523Z,7.80
2023-04-27T05:13:28.555Z,7.17
2023-04-27T05:15:59.640Z,7.25
2023-04-27T05:18:30.715Z,7.83
2023-04-27T05:21:01.783Z,7.80
2023-04-27T05:23:32.738Z,7.58
2023-04-27T05:26:03.851Z,8.10
2023-04-27T05:28:34.979Z,7.55
2023-04-27T05:31:06.550Z,7.40
2023-04-27T05:33:40.867Z,8.73
2023-04-27T05:36:12.825Z,8.78
2023-04-27T05:38:44.533Z,10.08
2023-04-27T05:41:16.036Z,9.48
2023-04-27T05:43:47.351Z,10.38
2023-04-27T05:46:19.396Z,10.45
2023-04-27T05:48:50.567Z,10.98
2023-04-27T05:51:21.858Z,10.90
2023-04-27T05:53:54.852Z,10.20
2023-04-27T05:56:26.463Z,10.20
2023-04-27T05:58:57.545Z,8.90
2023-04-27T06:01:28.618Z,10.75
2023-04-27T06:04:01.283Z,8.98
2023-04-27T06:06:34.416Z,9.58
2023-04-27T06:09:05.634Z,9.38
2023-04-27T06:11:37.131Z,9.83
2023-04-27T06:14:08.234Z,12.28
2023-04-27T06:16:39.318Z,9.83
2023-04-27T06:19:11.168Z,9.78
2023-04-27T06:21:43.864Z,12.30
2023-04-27T06:24:15.008Z,12.40
2023-04-27T06:26:46.208Z,11.90
2023-04-27T06:29:17.665Z,10.90
2023-04-27T06:31:49.082Z,12.15
2023-04-27T06:34:20.213Z,10.48
2023-04-27T06:36:51.314Z,10.28
2023-04-27T06:39:22.795Z,11.15
2023-04-27T06:41:54.001Z,12.75
2023-04-27T06:44:25.100Z,14.60
2023-04-27T06:46:56.614Z,14.70
2023-04-27T06:49:27.937Z,14.25
2023-04-27T06:51:59.403Z,13.08
2023-04-27T06:54:30.418Z,14.03
2023-04-27T06:57:01.589Z,14.73
2023-04-27T06:59:32.865Z,12.95
2023-04-27T07:02:04.259Z,13.45
2023-04-27T07:04:37.720Z,12.98
2023-04-27T07:07:11.114Z,11.93
2023-04-27T07:09:42.481Z,12.82
2023-04-27T07:12:13.632Z,13.78
2023-04-27T07:14:44.695Z,13.62
2023-04-27T07:17:16.458Z,13.03
2023-04-27T07:19:47.717Z,12.58
2023-04-27T07:22:19.091Z,14.18
2023-04-27T07:24:50.206Z,13.53
2023-04-27T07:27:21.659Z,12.95
2023-04-27T07:29:53.269Z,14.15
2023-04-27T07:32:24.624Z,13.30
2023-04-27T07:34:56.866Z,12.65
2023-04-27T07:37:28.742Z,15.23
2023-04-27T07:40:00.917Z,14.13
2023-04-27T07:42:32.315Z,14.03
2023-04-27T07:45:07.914Z,13.22
2023-04-27T07:47:39.509Z,14.80
2023-04-27T07:50:11.385Z,14.63
2023-04-27T07:52:42.619Z,14.40
2023-04-27T07:55:14.075Z,14.65
2023-04-27T07:57:45.688Z,15.40
2023-04-27T08:00:17.213Z,16.00
2023-04-27T08:02:48.468Z,17.37
2023-04-27T08:05:19.932Z,16.25
2023-04-27T08:07:53.111Z,17.32
2023-04-27T08:10:24.622Z,16.90
2023-04-27T08:12:56.967Z,15.45
2023-04-27T08:15:28.715Z,17.45
2023-04-27T08:17:59.821Z,17.77
2023-04-27T08:20:33.044Z,16.80
2023-04-27T08:23:06.671Z,16.23
2023-04-27T08:25:39.271Z,15.40
2023-04-27T08:28:10.340Z,15.00
2023-04-27T08:30:43.589Z,15.25
2023-04-27T08:33:14.504Z,16.75
2023-04-27T08:35:45.615Z,14.38
2023-04-27T08:38:17.236Z,13.03
2023-04-27T08:40:48.410Z,13.93
2023-04-27T08:43:19.511Z,13.40
2023-04-27T08:45:54.491Z,13.22
2023-04-27T08:48:26.054Z,14.00
2023-04-27T08:50:58.506Z,13.10
2023-04-27T08:53:29.650Z,12.65
2023-04-27T08:56:01.041Z,13.03
2023-04-27T08:58:41.857Z,13.43
2023-04-27T09:01:13.095Z,14.03
2023-04-27T09:03:44.317Z,13.03
2023-04-27T09:06:16.008Z,13.18
2023-04-27T09:08:52.722Z,13.38
2023-04-27T09:11:41.188Z,12.82
2023-04-27T09:14:26.062Z,13.70
2023-04-27T09:17:01.271Z,14.30
2023-04-27T09:19:35.798Z,13.53
2023-04-27T09:22:15.196Z,15.48
2023-04-27T09:24:57.388Z,14.60
2023-04-27T09:27:28.097Z,13.88
2023-04-27T09:29:59.239Z,14.55
2023-04-27T09:32:30.540Z,14.25
2023-04-27T09:35:01.619Z,14.75
2023-04-27T09:37:33.502Z,15.23
2023-04-27T09:40:06.085Z,15.15
2023-04-27T09:42:37.191Z,14.05
2023-04-27T09:45:10.074Z,14.38
2023-04-27T09:47:43.114Z,14.60
2023-04-27T09:50:16.088Z,14.50
2023-04-27T09:52:48.493Z,16.50
2023-04-27T09:55:21.897Z,16.90
2023-04-27T09:57:58.338Z,19.87
2023-04-27T10:00:37.550Z,17.02
2023-04-27T10:03:13.700Z,15.32
2023-04-27T10:05:56.116Z,15.53
2023-04-27T10:08:27.984Z,17.70
2023-04-27T10:10:59.097Z,14.30
2023-04-27T10:13:31.322Z,14.80
2023-04-27T10:16:04.753Z,16.23
2023-04-27T10:18:36.234Z,19.15
2023-04-27T10:21:14.523Z,17.85
2023-04-27T10:23:52.927Z,17.92
2023-04-27T10:26:28.630Z,16.57
2023-04-27T10:29:10.161Z,16.73
2023-04-27T10:31:49.345Z,15.20
2023-04-27T10:34:22.614Z,15.58
2023-04-27T10:36:54.994Z,16.05
2023-04-27T10:39:39.770Z,16.37
2023-04-27T10:42:00.311Z,15.63
2023-04-27T10:44:39.382Z,17.82
2023-04-27T10:47:18.109Z,18.00
2023-04-27T10:49:49.968Z,16.93
2023-04-27T10:52:20.966Z,16.32
2023-04-27T10:54:52.055Z,19.20
2023-04-27T10:57:24.217Z,21.05
2023-04-27T10:59:59.663Z,22.95
2023-04-27T11:02:31.620Z,18.65
2023-04-27T11:05:03.842Z,19.77
2023-04-27T11:07:35.360Z,23.10
2023-04-27T11:10:06.632Z,20.23
2023-04-27T11:12:38.708Z,19.60
2023-04-27T11:15:10.654Z,19.82
2023-04-27T11:17:41.905Z,18.90
2023-04-27T11:20:14.691Z,18.23
2023-04-27T11:22:49.378Z,18.17
2023-04-27T11:25:20.550Z,17.70
2023-04-27T11:27:51.751Z,17.52
2023-04-27T11:30:23.783Z,17.57
2023-04-27T11:32:54.957Z,19.27
2023-04-27T11:35:36.672Z,18.50
2023-04-27T11:38:08.681Z,18.42
2023-04-27T11:40:41.134Z,17.82
2023-04-27T11:43:16.671Z,17.80
2023-04-27T11:45:48.237Z,18.07
2023-04-27T11:48:19.570Z,18.17
2023-04-27T11:50:51.895Z,18.70
2023-04-27T11:53:40.658Z,19.40
2023-04-27T11:56:13.283Z,18.45
2023-04-27T11:58:46.448Z,18.05
2023-04-27T12:01:27.707Z,19.20
2023-04-27T12:03:51.310Z,19.85
2023-04-27T12:06:33.143Z,18.70
2023-04-27T12:09:02.569Z,19.85
2023-04-27T12:11:33.672Z,20.52
2023-04-27T12:14:09.134Z,19.12
2023-04-27T12:16:40.341Z,19.77
2023-04-27T12:19:11.409Z,19.77
2023-04-27T12:21:43.879Z,19.12
2023-04-27T12:24:15.218Z,18.65
2023-04-27T12:26:47.719Z,18.87
2023-04-27T12:29:19.140Z,19.27
2023-04-27T12:31:51.809Z,18.50
2023-04-27T12:34:23.203Z,17.65
2023-04-27T12:36:54.706Z,18.92
2023-04-27T12:39:29.278Z,19.37
2023-04-27T12:42:00.376Z,18.35
2023-04-27T12:44:31.435Z,18.48
2023-04-27T12:47:02.598Z,24.15
2023-04-27T12:49:33.863Z,23.00
2023-04-27T12:52:04.939Z,22.55
2023-04-27T12:54:36.047Z,21.60
2023-04-27T12:57:09.960Z,19.80
2023-04-27T12:59:41.020Z,19.92
2023-04-27T13:02:13.335Z,19.45
2023-04-27T13:04:44.497Z,18.52
2023-04-27T13:07:15.625Z,18.90
2023-04-27T13:09:46.955Z,16.70
2023-04-27T13:12:18.009Z,17.57
2023-04-27T13:14:49.027Z,17.10
2023-04-27T13:17:21.377Z,16.27
2023-04-27T13:19:55.101Z,17.55
2023-04-27T13:22:26.237Z,16.48
2023-04-27T13:24:57.401Z,16.27
2023-04-27T13:27:29.620Z,16.25
2023-04-27T13:30:00.607Z,16.70
2023-04-27T13:32:31.725Z,15.90
2023-04-27T13:35:02.804Z,16.60
2023-04-27T13:37:33.906Z,16.82
2023-04-27T13:40:25.265Z,15.60
2023-04-27T13:42:56.357Z,16.27
2023-04-27T13:45:28.785Z,14.98
2023-04-27T13:48:05.508Z,14.68
2023-04-27T13:50:37.922Z,13.85
2023-04-27T13:53:10.269Z,13.48
2023-04-27T13:55:41.646Z,14.58
2023-04-27T13:58:14.574Z,13.55
2023-04-27T14:00:45.779Z,13.90
2023-04-27T14:03:23.941Z,13.75
2023-04-27T14:08:50.245Z,13.40
2023-04-27T14:11:56.916Z,12.82
2023-04-27T14:14:31.227Z,12.70
2023-04-27T14:17:02.441Z,12.90
2023-04-27T14:19:34.129Z,13.25
2023-04-27T14:22:06.698Z,12.68
2023-04-27T14:24:37.704Z,13.28
2023-04-27T14:27:26.956Z,14.18
2023-04-27T14:29:57.492Z,14.25
2023-04-27T14:32:28.903Z,13.48
2023-04-27T14:35:01.521Z,14.35
2023-04-27T14:40:44.904Z,13.75
2023-04-27T14:43:19.223Z,15.13
2023-04-27T14:45:54.238Z,14.20
2023-04-27T14:48:25.802Z,14.98
2023-04-27T14:50:56.944Z,15.15
2023-04-27T14:53:27.941Z,15.58
2023-04-27T14:56:00.222Z,15.35
2023-04-27T14:58:32.616Z,15.43
2023-04-27T15:01:07.089Z,15.93
2023-04-27T15:03:38.441Z,15.40
2023-04-27T15:06:09.954Z,15.45
2023-04-27T15:08:41.109Z,15.85
2023-04-27T15:11:12.424Z,15.95
2023-04-27T15:13:43.556Z,16.07
2023-04-27T15:16:14.694Z,17.17
2023-04-27T15:18:45.944Z,15.35
2023-04-27T15:21:17.099Z,16.37
2023-04-27T15:23:48.192Z,15.63
2023-04-27T15:26:19.169Z,15.63
2023-04-27T15:28:50.241Z,15.80
2023-04-27T15:31:21.427Z,15.48
2023-04-27T15:33:52.513Z,15.43
2023-04-27T15:36:26.047Z,15.35
2023-04-27T15:38:57.145Z,15.28
2023-04-27T15:41:30.043Z,15.78
2023-04-27T15:44:01.097Z,14.33
2023-04-27T15:46:34.701Z,14.65
2023-04-27T15:49:05.109Z,15.78
2023-04-27T15:51:36.838Z,16.17
2023-04-27T15:54:09.118Z,15.95
2023-04-27T15:56:43.059Z,15.63
2023-04-27T15:59:15.632Z,15.45
2023-04-27T16:01:49.507Z,15.58
2023-04-27T16:04:25.010Z,15.20
2023-04-27T16:06:56.084Z,15.55
2023-04-27T16:09:29.127Z,15.68
2023-04-27T16:11:59.451Z,15.28
2023-04-27T16:14:30.617Z,14.95
2023-04-27T16:17:02.412Z,15.43
2023-04-27T16:19:40.680Z,15.83
2023-04-27T16:22:07.163Z,16.05
2023-04-27T16:24:39.545Z,16.57
2023-04-27T16:27:11.537Z,16.00
2023-04-27T16:29:42.699Z,15.55
2023-04-27T16:32:13.927Z,15.88
2023-04-27T16:34:44.995Z,15.23
2023-04-27T16:37:16.114Z,15.78
2023-04-27T16:39:47.316Z,16.12
2023-04-27T16:42:20.620Z,16.02
2023-04-27T16:44:52.505Z,16.25
2023-04-27T16:47:23.952Z,15.93
2023-04-27T16:49:56.335Z,15.55
2023-04-27T16:52:27.453Z,16.27
2023-04-27T16:54:58.556Z,16.67
2023-04-27T16:57:29.452Z,15.95
2023-04-27T17:00:00.589Z,16.50
2023-04-27T17:02:31.970Z,16.20
2023-04-27T17:05:03.129Z,16.37
2023-04-27T17:07:36.980Z,17.05
2023-04-27T17:10:08.620Z,17.15
2023-04-27T17:12:40.203Z,16.40
2023-04-27T17:15:13.261Z,17.45
2023-04-27T17:17:45.583Z,17.98
2023-04-27T17:20:16.963Z,16.85
2023-04-27T17:22:48.081Z,16.32
2023-04-27T17:25:20.190Z,17.92
2023-04-27T17:27:52.526Z,17.00
2023-04-27T17:30:23.617Z,15.63
2023-04-27T17:32:54.781Z,18.82
2023-04-27T17:35:26.013Z,17.17
2023-04-27T17:37:57.175Z,17.62
2023-04-27T17:40:28.530Z,17.70
2023-04-27T17:42:59.585Z,18.57
2023-04-27T17:45:30.331Z,17.52
2023-04-27T17:48:01.820Z,18.40
2023-04-27T17:50:33.062Z,18.02
2023-04-27T17:53:04.042Z,18.45
2023-04-27T17:55:35.142Z,18.52
2023-04-27T17:58:07.429Z,18.60
2023-04-27T18:00:38.567Z,17.45
2023-04-27T18:03:10.005Z,18.80
2023-04-27T18:05:41.238Z,18.95
2023-04-27T18:08:13.562Z,19.02
2023-04-27T18:10:44.658Z,19.07
2023-04-27T18:13:15.744Z,19.48
2023-04-27T18:15:46.779Z,18.35
2023-04-27T18:18:19.140Z,18.80
2023-04-27T18:20:50.224Z,18.52
2023-04-27T18:23:25.937Z,18.17
2023-04-27T18:25:58.066Z,18.87
2023-04-27T18:28:29.039Z,18.77
2023-04-27T18:31:00.124Z,18.70
2023-04-27T18:33:31.217Z,17.75
2023-04-27T18:36:02.285Z,17.50
2023-04-27T18:38:33.165Z,18.87
2023-04-27T18:41:04.248Z,18.00
2023-04-27T18:43:39.115Z,18.05
2023-04-27T18:46:11.208Z,19.77
2023-04-27T18:48:42.322Z,20.40
2023-04-27T18:51:13.284Z,18.48
2023-04-27T18:53:44.462Z,18.02
2023-04-27T18:56:16.031Z,18.40
2023-04-27T18:58:47.375Z,19.00
2023-04-27T19:01:26.675Z,18.48
2023-04-27T19:03:59.179Z,18.37
2023-04-27T19:06:33.068Z,19.02
2023-04-27T19:09:04.116Z,19.48
2023-04-27T19:11:34.852Z,18.75
2023-04-27T19:14:05.968Z,19.12
2023-04-27T19:16:37.696Z,18.87
2023-04-27T19:19:08.446Z,19.55
2023-04-27T19:21:40.621Z,19.45
2023-04-27T19:24:11.896Z,19.05
2023-04-27T19:26:43.129Z,19.10
2023-04-27T19:29:14.598Z,19.80
2023-04-27T19:31:46.054Z,20.82
2023-04-27T19:34:17.261Z,19.00
2023-04-27T19:36:48.423Z,20.27
2023-04-27T19:39:21.686Z,20.85
2023-04-27T19:41:52.565Z,19.48
2023-04-27T19:44:23.682Z,19.27
2023-04-27T19:46:54.754Z,19.27
2023-04-27T19:49:25.845Z,19.25
2023-04-27T19:51:56.924Z,20.10
2023-04-27T19:54:28.042Z,19.42
2023-04-27T19:56:59.307Z,19.42
2023-04-27T19:59:30.292Z,20.15
2023-04-27T20:02:01.455Z,20.30
2023-04-27T20:04:33.379Z,19.75
2023-04-27T20:07:05.939Z,20.55
2023-04-27T20:09:37.279Z,19.23
2023-04-27T20:12:11.365Z,19.45
2023-04-27T20:14:40.946Z,20.25
2023-04-27T20:17:12.039Z,19.35
2023-04-27T20:19:43.852Z,21.50
2023-04-27T20:22:14.818Z,20.02
2023-04-27T20:24:46.454Z,21.27
2023-04-27T20:27:18.370Z,20.75
2023-04-27T20:29:49.438Z,20.90
2023-04-27T20:32:20.579Z,20.25
2023-04-27T20:34:51.634Z,20.88
2023-04-27T20:37:22.792Z,19.95
2023-04-27T20:39:55.040Z,20.60
2023-04-27T20:42:27.560Z,21.23
2023-04-27T20:44:58.638Z,20.82
2023-04-27T20:47:29.822Z,19.35
2023-04-27T20:50:00.940Z,20.60
2023-04-27T20:52:34.419Z,21.10
2023-04-27T20:55:05.151Z,21.75
2023-04-27T20:57:36.259Z,21.52
2023-04-27T21:00:09.829Z,21.05
2023-04-27T21:02:40.994Z,20.80
2023-04-27T21:05:12.409Z,20.88
2023-04-27T21:07:43.496Z,20.08
2023-04-27T21:10:14.614Z,21.27
2023-04-27T21:12:45.738Z,22.48
2023-04-27T21:15:16.859Z,21.48
2023-04-27T21:17:48.063Z,23.18
2023-04-27T21:20:19.333Z,21.97
2023-04-27T21:22:50.548Z,22.10
2023-04-27T21:25:23.577Z,20.70
2023-04-27T21:27:54.147Z,21.80
2023-04-27T21:30:25.402Z,23.32
2023-04-27T21:32:56.552Z,22.85
2023-04-27T21:35:32.357Z,23.65
2023-04-27T21:38:03.496Z,23.40
2023-04-27T21:40:34.865Z,23.00
2023-04-27T21:43:07.279Z,22.48
2023-04-27T21:45:39.068Z,23.45
2023-04-27T21:48:10.465Z,24.07
2023-04-27T21:50:41.606Z,23.73
2023-04-27T21:53:12.753Z,24.32
2023-04-27T21:55:43.827Z,24.02
2023-04-27T21:58:15.047Z,23.47
2023-04-27T22:00:48.294Z,23.95
2023-04-27T22:03:18.856Z,24.47
2023-04-27T22:05:51.344Z,24.37
2023-04-27T22:08:23.023Z,23.57
2023-04-27T22:10:54.193Z,24.47
2023-04-27T22:13:25.364Z,24.50
2023-04-27T22:15:56.527Z,23.65
2023-04-27T22:18:27.685Z,25.17
2023-04-27T22:20:59.261Z,26.02
2023-04-27T22:23:32.187Z,25.02
2023-04-27T22:26:03.420Z,24.02
2023-04-27T22:28:34.528Z,24.05
2023-04-27T22:31:05.919Z,23.80
2023-04-27T22:33:38.046Z,25.82
2023-04-27T22:36:09.826Z,23.50
2023-04-27T22:38:41.092Z,24.43
2023-04-27T22:41:12.689Z,25.57
2023-04-27T22:43:43.931Z,24.45
2023-04-27T22:46:15.091Z,25.82
2023-04-27T22:48:46.152Z,25.08
2023-04-27T22:51:17.245Z,24.85
2023-04-27T22:53:48.725Z,25.68
2023-04-27T22:56:19.781Z,24.92
2023-04-27T22:58:50.962Z,25.55
2023-04-27T23:01:22.166Z,25.45
2023-04-27T23:03:55.031Z,25.60
2023-04-27T23:06:26.228Z,26.23
2023-04-27T23:08:57.821Z,24.77
2023-04-27T23:11:30.107Z,25.27
2023-04-27T23:14:01.194Z,25.70
2023-04-27T23:16:33.115Z,25.37
2023-04-27T23:19:04.216Z,25.90
2023-04-27T23:21:47.621Z,24.82
2023-04-27T23:24:18.836Z,25.65
2023-04-27T23:26:49.987Z,26.68
2023-04-27T23:29:29.957Z,25.60
2023-04-27T23:32:07.701Z,28.62
2023-04-27T23:34:38.833Z,27.90
2023-04-27T23:37:09.603Z,26.82
2023-04-27T23:39:46.000Z,27.02
2023-04-27T23:42:17.919Z,25.72
2023-04-27T23:44:48.855Z,26.87
2023-04-27T23:47:19.826Z,25.57
2023-04-27T23:49:52.238Z,27.00
2023-04-27T23:52:23.346Z,26.42
2023-04-27T23:54:54.466Z,27.52
2023-04-27T23:57:25.613Z,27.37
2023-04-27T23:59:56.729Z,26.30
